Impacts METAR Board
IDs:

KSAT - San Antonio Intl, TX, US

Updated at: 0200 UTC 10 Dec 2022
Potential Impact None Slight Moderate High
Time 09/14Z 09/15Z 09/16Z 09/17Z 09/18Z 09/19Z 09/20Z 09/21Z 09/22Z 09/23Z 10/00Z 10/01Z 10/02Z
Temp67 69 70 73 75 75 77 78 78 78 76 73 71
Dewpt65 66 66 65 65 64 64 64 61 62 62 62 63
Altim30.14 30.16 30.16 30.15 30.12 30.09 30.06 30.03 30.02 30.01 30.02 30.03 30.04
VIS3 3 3 10 10 10 10 10 10 10 10 10 10
CIG24 8 12 16 20 25 28 44 40 250 -- -- --
CoverOVCOVCOVCBKNBKNBKNBKNBKNBKNBKNSCTFEWFEW
FltCatMVFRIFRMVFRMVFRMVFRMVFRMVFRVFRVFRVFRVFRVFRVFR
WXBRBRBR--------------------
WDir000140170160120130150140140140140
WSpd0 0 3 6 8 7 7 7 9 8 11 8 10
WGst-- -- -- -- -- -- -- -- -- -- -- -- --
R04/22
XWnd VRB VRB VRB -6 -6 -6 -7 -7 -9 -8 -11 -8 -10
HWnd VRB VRB VRB -1 -5 -3 1 0 -3 -1 -2 -1 -2
R13/31
XWnd VRB VRB VRB -1 -5 -3 1 0 -3 -1 -2 -1 -1
HWnd VRB VRB VRB 6 6 6 7 7 9 8 11 8 10
Raw hourly METARs
KSAT 091351Z 00000KT 3SM BR SCT010 BKN024 OVC041 19/18 A3014 RMK AO2 SLP191 T01940183
KSAT 091451Z 00000KT 3SM BR BKN008 OVC015 21/19 A3016 RMK AO2 SFC VIS 4 RAB29E40 SLP196 P0000 60000 T02060189 53015
KSAT 091551Z VRB03KT 3SM BR SCT008 BKN012 OVC047 21/19 A3016 RMK AO2 SFC VIS 5 SLP198 T02110189
KSAT 091651Z 14006KT 10SM BKN016 BKN050 BKN250 23/18 A3015 RMK AO2 SLP196 T02280183
KSAT 091751Z 17008KT 10SM BKN020 BKN050 BKN250 24/18 A3012 RMK AO2 SLP184 60000 T02390183 10239 20189 58010
KSAT 091851Z 16007KT 10SM BKN025 BKN050 BKN250 24/18 A3009 RMK AO2 SLP171 T02390178
KSAT 091951Z 12007KT 10SM BKN028 BKN048 BKN250 25/18 A3006 RMK AO2 SLP161 T02500178
KSAT 092051Z 13007KT 10SM SCT035 BKN044 BKN250 26/18 A3003 RMK AO2 SLP153 T02560178 56030
KSAT 092151Z 15009KT 10SM BKN040 BKN250 26/16 A3002 RMK AO2 SLP150 T02560161
KSAT 092251Z 14008KT 10SM SCT040 BKN250 26/17 A3001 RMK AO2 SLP145 T02560167
KSAT 092351Z 14011KT 10SM SCT042 SCT250 24/17 A3002 RMK AO2 SLP148 T02440167 10261 20233 55006
KSAT 100051Z 14008KT 10SM FEW040 FEW250 23/17 A3003 RMK AO2 SLP154 T02280167
KSAT 100151Z 14010KT 10SM FEW015 FEW250 22/17 A3004 RMK AO2 SLP159 T02170172



Page loaded:  02:15 UTC  |   06:15 PM Pacific  |   07:15 PM Mountain  |   08:15 PM Central  |   09:15 PM Eastern

 

ADVISORIES

FORECASTS

FORECASTS

OBSERVATIONS

USER TOOLS

ABOUT US